Dades de l'estació automàtica la Bisbal d'Empordà
Resum diari
21:30 TU| Temperatura mitjana | 17.8 °C | |
|---|---|---|
| Temperatura màxima | 22.8 °C | 12:33 TU |
| Temperatura mínima | 14.0 °C | 3:16 TU |
| Humitat relativa mitjana | 85% | |
| Precipitació acumulada | 1.9 mm | |
| Ratxa màxima del vent (10 m) | 33.8 km/h - 154º | 10:53 TU |
| Pressió atmosfèrica mitjana | 1011.8 hPa | |
| Irradiació solar global | 16.1 MJ/m2 | |
El tram horari està expressat en Temps Universal (TU). Cal sumar una hora en horari d'hivern i dues en horari d'estiu per passar a l'hora oficial.
la Bisbal d'Empordà
| Municipi | La Bisbal d'Empordà |
|---|---|
| Comarca | Baix Empordà |
| Altitud | 30 m |
| Data alta | 25.03.1998 |
| Estat actual | Operativa |
| Període TU |
TM °C |
TX °C |
TN °C |
HRM % |
PPT mm |
VVM (10 m) km/h |
DVM (10 m) graus |
VVX (10 m) km/h |
PM hPa |
RS W/m2 |
|---|---|---|---|---|---|---|---|---|---|---|
| 00:00 - 00:30 | 15.5 | 15.6 | 15.3 | 96 | 0.0 | 2.5 | 184 | 6.1 | 1014.0 | 0 |
| 00:30 - 01:00 | 14.8 | 15.2 | 14.5 | 96 | 0.0 | 2.5 | 239 | 6.5 | 1013.7 | 0 |
| 01:00 - 01:30 | 14.5 | 14.7 | 14.3 | 97 | 0.0 | 2.5 | 185 | 5.4 | 1013.7 | 0 |
| 01:30 - 02:00 | 14.3 | 14.4 | 14.2 | 97 | 0.0 | 2.9 | 177 | 7.2 | 1013.7 | 0 |
| 02:00 - 02:30 | 14.2 | 14.3 | 14.1 | 98 | 0.0 | 3.2 | 183 | 7.2 | 1013.5 | 0 |
| 02:30 - 03:00 | 14.2 | 14.3 | 14.0 | 98 | 0.0 | 1.4 | 274 | 6.1 | 1013.4 | 0 |
| 03:00 - 03:30 | 14.1 | 14.2 | 14.0 | 98 | 0.0 | 1.4 | 172 | 4.0 | 1013.3 | 0 |
| 03:30 - 04:00 | 14.3 | 14.4 | 14.2 | 98 | 0.0 | 3.2 | 183 | 6.5 | 1013.0 | 0 |
| 04:00 - 04:30 | 14.4 | 14.4 | 14.3 | 97 | 0.0 | 2.2 | 193 | 5.8 | 1012.8 | 0 |
| 04:30 - 05:00 | 14.3 | 14.3 | 14.1 | 96 | 0.0 | 3.2 | 198 | 6.1 | 1012.6 | 5 |
| 05:00 - 05:30 | 14.4 | 14.6 | 14.2 | 96 | 0.0 | 1.1 | 170 | 3.6 | 1012.6 | 28 |
| 05:30 - 06:00 | 14.6 | 15.1 | 14.4 | 96 | 0.0 | 1.1 | 177 | 4.0 | 1012.4 | 56 |
| 06:00 - 06:30 | 15.6 | 17.1 | 15.0 | 92 | 0.0 | 3.2 | 280 | 8.3 | 1012.4 | 177 |
| 06:30 - 07:00 | 18.4 | 19.1 | 17.1 | 77 | 0.0 | 1.1 | 315 | 4.0 | 1012.2 | 308 |
| 07:00 - 07:30 | 19.5 | 19.9 | 19.0 | 71 | 0.0 | 2.9 | 271 | 13.7 | 1012.2 | 421 |
| 07:30 - 08:00 | 19.5 | 19.8 | 19.2 | 70 | 0.0 | 9.0 | 258 | 17.6 | 1012.2 | 397 |
| 08:00 - 08:30 | 20.2 | 20.7 | 19.6 | 68 | 0.0 | 8.3 | 270 | 14.8 | 1012.1 | 454 |
| 08:30 - 09:00 | 21.4 | 22.0 | 20.6 | 63 | 0.0 | 2.9 | 226 | 7.9 | 1011.9 | 545 |
| 09:00 - 09:30 | 22.3 | 22.6 | 21.9 | 59 | 0.0 | 2.5 | 195 | 10.4 | 1011.9 | 455 |
| 09:30 - 10:00 | 22.1 | 22.4 | 21.9 | 65 | 0.0 | 10.8 | 157 | 22.0 | 1011.9 | 574 |
| 10:00 - 10:30 | 22.2 | 22.6 | 21.4 | 64 | 0.0 | 12.6 | 159 | 23.8 | 1011.9 | 644 |
| 10:30 - 11:00 | 21.0 | 21.6 | 20.5 | 67 | 0.0 | 19.1 | 159 | 33.8 | 1011.9 | 600 |
| 11:00 - 11:30 | 20.6 | 20.9 | 20.3 | 72 | 0.0 | 17.3 | 170 | 33.1 | 1011.6 | 484 |
| 11:30 - 12:00 | 21.3 | 22.4 | 20.7 | 70 | 0.0 | 14.8 | 179 | 33.1 | 1011.4 | 670 |
| 12:00 - 12:30 | 22.1 | 22.6 | 21.7 | 66 | 0.0 | 13.3 | 178 | 29.9 | 1011.4 | 731 |
| 12:30 - 13:00 | 21.7 | 22.8 | 20.9 | 69 | 0.0 | 13.7 | 180 | 32.0 | 1011.2 | 596 |
| 13:00 - 13:30 | 21.8 | 22.1 | 21.4 | 67 | 0.0 | 13.3 | 183 | 31.0 | 1011.0 | 534 |
| 13:30 - 14:00 | 20.9 | 21.6 | 20.4 | 70 | 0.0 | 11.9 | 191 | 33.8 | 1011.0 | 338 |
| 14:00 - 14:30 | 20.0 | 20.7 | 19.4 | 77 | 0.0 | 10.1 | 191 | 26.3 | 1010.9 | 190 |
| 14:30 - 15:00 | 19.2 | 19.4 | 19.0 | 83 | 0.0 | 7.9 | 195 | 18.7 | 1010.8 | 122 |
| 15:00 - 15:30 | 18.7 | 18.9 | 18.3 | 87 | 0.1 | 6.8 | 196 | 18.0 | 1010.9 | 156 |
| 15:30 - 16:00 | 18.9 | 19.2 | 18.3 | 86 | 0.0 | 7.2 | 206 | 20.5 | 1011.0 | 217 |
| 16:00 - 16:30 | 18.7 | 18.9 | 18.6 | 86 | 0.1 | 6.5 | 215 | 20.2 | 1010.9 | 113 |
| 16:30 - 17:00 | 18.1 | 18.7 | 17.4 | 91 | 0.8 | 4.7 | 198 | 12.6 | 1010.8 | 68 |
| 17:00 - 17:30 | 17.3 | 17.3 | 17.2 | 97 | 0.3 | 2.9 | 198 | 7.6 | 1010.5 | 41 |
| 17:30 - 18:00 | 17.2 | 17.3 | 17.1 | 97 | 0.2 | 2.5 | 200 | 7.9 | 1010.2 | 28 |
| 18:00 - 18:30 | 17.1 | 17.2 | 17.0 | 98 | 0.4 | 2.2 | 212 | 7.6 | 1010.1 | 28 |
| 18:30 - 19:00 | 16.7 | 17.1 | 16.4 | 97 | 0.0 | 5.4 | 229 | 9.7 | 1010.2 | 4 |
| 19:00 - 19:30 | 16.2 | 16.4 | 16.1 | 98 | 0.0 | 3.6 | 221 | 7.9 | 1010.5 | 0 |
| 19:30 - 20:00 | 16.1 | 16.2 | 16.0 | 98 | 0.0 | 4.7 | 221 | 13.0 | 1011.0 | 0 |
| 20:00 - 20:30 | 16.1 | 16.2 | 16.0 | 98 | 0.0 | 2.5 | 204 | 7.9 | 1011.3 | 0 |
| 20:30 - 21:00 | 16.0 | 16.1 | 16.0 | 98 | 0.0 | 3.6 | 223 | 9.4 | 1011.7 | 0 |
| 21:00 - 21:30 | 16.0 | 16.1 | 16.0 | 98 | 0.0 | 3.6 | 221 | 9.7 | 1011.8 | 0 |
| 21:30 - 22:00 | 15.7 | 16.0 | 15.5 | 97 | 0.0 | 4.0 | 216 | 9.0 | 1011.6 | 0 |
Les dades en taronja només han passat un control de qualitat automàtic. Resta pendent la seva validació definitiva.